Time;durP1;ratioP1;P1;durP2;ratioP2;P2;SDS_P1;SDS_P2;PMS_P1;PMS_P2;Temp;Humidity;BMP_temperature;BMP_pressure;BME280_temperature;BME280_humidity;BME280_pressure;Samples;Min_cycle;Max_cycle;Signal;HPM_P1;HPM_P2
2023/07/25 00:01:06;;;;;;;3.93;2.97;;;14.90;93.80;;;;;;5034244;28;20438;-74
2023/07/25 00:03:33;;;;;;;4.57;2.63;;;14.80;93.80;;;;;;5033550;28;20164;-71
2023/07/25 00:06:02;;;;;;;6.50;2.93;;;14.90;94.30;;;;;;5033314;28;20175;-70
2023/07/25 00:08:27;;;;;;;2.83;2.57;;;14.80;99.90;;;;;;5033532;28;20417;-72
2023/07/25 00:10:53;;;;;;;3.73;3.07;;;14.80;99.90;;;;;;5032216;28;20398;-73
2023/07/25 00:13:19;;;;;;;7.90;2.50;;;14.80;99.90;;;;;;5033727;28;20198;-71
2023/07/25 00:15:44;;;;;;;4.80;2.20;;;14.80;99.90;;;;;;5032407;28;20176;-75
2023/07/25 00:18:10;;;;;;;6.80;2.83;;;14.80;99.90;;;;;;5032893;28;20338;-75
2023/07/25 00:20:36;;;;;;;4.53;2.70;;;14.90;99.90;;;;;;5032717;28;20207;-73
2023/07/25 00:23:01;;;;;;;2.87;1.90;;;15.00;99.90;;;;;;5032615;28;20178;-74
2023/07/25 00:25:27;;;;;;;4.20;1.83;;;15.00;99.90;;;;;;5032609;28;20631;-70
2023/07/25 00:27:53;;;;;;;4.70;2.40;;;15.00;99.90;;;;;;5033651;28;20249;-70
2023/07/25 00:30:18;;;;;;;1.90;1.80;;;15.00;99.90;;;;;;5033311;28;20203;-74
2023/07/25 00:32:44;;;;;;;3.53;2.40;;;15.10;99.90;;;;;;5032824;28;20175;-74
2023/07/25 00:35:10;;;;;;;4.27;2.20;;;15.10;99.90;;;;;;5032905;28;20535;-74
2023/07/25 00:37:36;;;;;;;4.23;2.10;;;15.10;99.90;;;;;;5033550;28;20198;-74
2023/07/25 00:40:01;;;;;;;4.67;2.27;;;15.10;99.90;;;;;;5032811;28;20596;-72
2023/07/25 00:42:27;;;;;;;2.93;2.30;;;15.10;99.90;;;;;;5033632;28;20160;-71
2023/07/25 00:44:53;;;;;;;3.50;2.07;;;15.10;99.90;;;;;;5032301;28;20595;-74
2023/07/25 00:47:20;;;;;;;4.23;2.27;;;15.10;99.90;;;;;;5032688;28;20196;-74
2023/07/25 00:49:47;;;;;;;3.67;2.33;;;15.10;99.90;;;;;;5032962;28;20183;-72
2023/07/25 00:52:13;;;;;;;2.53;2.13;;;15.10;99.90;;;;;;5033299;28;20430;-72
2023/07/25 00:54:44;;;;;;;3.20;1.60;;;15.20;99.90;;;;;;5033551;28;20755;-74
2023/07/25 00:57:10;;;;;;;2.77;1.93;;;15.20;99.90;;;;;;5032429;28;20807;-74
2023/07/25 00:59:35;;;;;;;5.70;2.90;;;15.30;99.90;;;;;;5032813;28;20461;-71
2023/07/25 01:02:02;;;;;;;3.47;2.00;;;15.20;99.90;;;;;;5031722;28;20528;-73
2023/07/25 01:04:27;;;;;;;3.67;2.30;;;15.30;99.90;;;;;;5033457;28;20164;-70
2023/07/25 01:06:53;;;;;;;2.60;1.40;;;15.30;99.90;;;;;;5032113;28;20429;-71
2023/07/25 01:09:43;;;;;;;2.23;1.70;;;15.30;99.90;;;;;;5032840;28;20166;-74
2023/07/25 01:12:10;;;;;;;3.10;2.40;;;15.20;99.90;;;;;;5031256;28;20422;-74
2023/07/25 01:14:37;;;;;;;3.67;2.30;;;15.20;99.90;;;;;;5033100;28;20743;-75
2023/07/25 01:17:11;;;;;;;4.17;2.27;;;15.20;99.90;;;;;;5032252;28;20501;-73
2023/07/25 01:19:40;;;;;;;2.77;2.20;;;15.20;99.90;;;;;;5032856;28;20445;-74
2023/07/25 01:22:07;;;;;;;2.37;2.17;;;15.20;99.90;;;;;;5033080;28;20489;-71
2023/07/25 01:24:35;;;;;;;2.53;2.07;;;15.20;99.90;;;;;;5032579;28;20481;-74
2023/07/25 01:27:01;;;;;;;3.87;2.30;;;15.20;99.90;;;;;;5029771;28;20504;-75
2023/07/25 01:29:27;;;;;;;2.67;2.17;;;15.20;99.90;;;;;;5033034;28;20413;-72
2023/07/25 01:31:53;;;;;;;4.33;2.20;;;15.30;99.90;;;;;;5033054;28;20395;-71
2023/07/25 01:34:18;;;;;;;2.33;2.13;;;15.20;99.90;;;;;;5020388;28;20187;-74
2023/07/25 01:36:44;;;;;;;8.67;2.87;;;15.20;99.90;;;;;;5012249;28;20506;-71
2023/07/25 01:39:10;;;;;;;5.70;2.43;;;15.10;99.90;;;;;;5012975;28;20643;-74
2023/07/25 01:41:35;;;;;;;5.23;2.03;;;15.10;99.90;;;;;;5015350;28;20736;-70
2023/07/25 01:44:01;;;;;;;5.37;2.57;;;15.00;99.90;;;;;;5012768;28;20169;-72
2023/07/25 01:46:27;;;;;;;6.20;2.80;;;15.00;99.90;;;;;;5024673;28;20207;-74
2023/07/25 01:48:53;;;;;;;6.20;2.70;;;15.00;99.90;;;;;;5032768;28;20184;-74
2023/07/25 01:51:19;;;;;;;4.90;2.10;;;15.00;99.90;;;;;;5034741;28;20172;-74
2023/07/25 01:53:44;;;;;;;5.50;2.37;;;15.00;99.90;;;;;;5036366;28;20265;-71
2023/07/25 01:56:10;;;;;;;3.63;2.87;;;15.00;99.90;;;;;;5035495;28;20494;-70
2023/07/25 01:58:36;;;;;;;4.77;1.97;;;15.00;99.90;;;;;;5035050;28;20203;-74
2023/07/25 02:01:01;;;;;;;10.77;4.13;;;15.00;99.90;;;;;;5035215;28;20606;-73
2023/07/25 02:03:27;;;;;;;2.90;2.17;;;14.90;99.90;;;;;;5036058;28;20168;-71
2023/07/25 02:05:53;;;;;;;5.57;2.77;;;14.90;99.90;;;;;;5035463;28;20246;-70
2023/07/25 02:08:19;;;;;;;4.97;2.53;;;14.80;99.90;;;;;;5034799;28;20481;-71
2023/07/25 02:10:44;;;;;;;3.13;2.40;;;14.80;99.90;;;;;;5036190;28;20524;-71
2023/07/25 02:13:10;;;;;;;4.17;3.80;;;14.80;99.90;;;;;;5034526;28;20187;-75
2023/07/25 02:15:39;;;;;;;6.93;2.47;;;14.90;99.90;;;;;;5034034;28;20175;-70
2023/07/25 02:18:04;;;;;;;2.40;2.20;;;14.90;99.90;;;;;;5036292;28;20195;-74
2023/07/25 02:20:31;;;;;;;10.63;3.00;;;14.80;99.90;;;;;;5034274;28;20458;-74
2023/07/25 02:22:58;;;;;;;6.30;2.70;;;14.80;99.90;;;;;;5034165;28;20171;-73
2023/07/25 02:25:25;;;;;;;3.67;2.17;;;14.80;99.90;;;;;;5035228;28;20399;-74
2023/07/25 02:27:51;;;;;;;5.40;3.13;;;14.70;99.90;;;;;;5035018;28;20448;-71
2023/07/25 02:30:16;;;;;;;2.33;2.13;;;14.70;99.90;;;;;;5035536;28;20418;-73
2023/07/25 02:32:42;;;;;;;5.00;2.70;;;14.70;99.90;;;;;;5034735;28;20171;-74
2023/07/25 02:35:08;;;;;;;7.93;3.50;;;14.70;99.90;;;;;;5034801;28;20171;-74
2023/07/25 02:37:33;;;;;;;7.23;2.20;;;14.70;99.90;;;;;;5034602;28;20230;-71
2023/07/25 02:39:59;;;;;;;5.23;2.80;;;14.60;99.90;;;;;;5035323;28;20543;-70
2023/07/25 02:42:25;;;;;;;4.97;3.00;;;14.60;99.90;;;;;;5034463;28;20215;-70
2023/07/25 02:44:50;;;;;;;3.73;2.53;;;14.60;99.90;;;;;;5035437;28;20164;-76
2023/07/25 02:47:16;;;;;;;11.37;3.03;;;14.50;99.90;;;;;;5034928;28;20655;-70
2023/07/25 02:49:42;;;;;;;7.90;3.57;;;14.50;99.90;;;;;;5035110;28;20198;-75
2023/07/25 02:52:09;;;;;;;5.03;2.90;;;14.50;99.90;;;;;;5033722;28;20210;-71
2023/07/25 02:54:34;;;;;;;8.33;3.13;;;14.50;99.90;;;;;;5035548;28;20437;-74
2023/07/25 02:57:00;;;;;;;2.90;2.70;;;14.50;99.90;;;;;;5034336;28;20187;-74
2023/07/25 02:59:28;;;;;;;8.33;2.83;;;14.40;99.90;;;;;;5033938;28;20616;-73
2023/07/25 03:01:54;;;;;;;9.07;3.20;;;14.40;99.90;;;;;;5035034;28;20167;-74
2023/07/25 03:04:19;;;;;;;5.93;3.27;;;14.30;99.90;;;;;;5035639;28;20925;-71
2023/07/25 03:06:45;;;;;;;4.07;2.70;;;14.30;99.90;;;;;;5033562;28;20302;-70
2023/07/25 03:09:10;;;;;;;3.43;2.90;;;14.30;99.90;;;;;;5033930;28;20179;-71
2023/07/25 03:11:36;;;;;;;3.33;3.03;;;14.20;99.90;;;;;;5034977;28;20182;-75
2023/07/25 03:14:02;;;;;;;9.80;3.40;;;14.20;99.90;;;;;;5035063;28;20497;-73
2023/07/25 03:16:28;;;;;;;4.53;2.83;;;14.20;99.90;;;;;;5034314;28;20179;-74
2023/07/25 03:18:53;;;;;;;4.17;2.63;;;14.20;99.90;;;;;;5034220;28;20628;-70
2023/07/25 03:21:19;;;;;;;4.43;2.53;;;14.10;99.90;;;;;;5034863;28;20207;-75
2023/07/25 03:23:45;;;;;;;7.63;3.47;;;14.10;99.90;;;;;;5035011;28;20648;-71
2023/07/25 03:26:10;;;;;;;9.03;3.13;;;14.10;99.90;;;;;;5033736;28;20180;-74
2023/07/25 03:28:36;;;;;;;10.87;3.03;;;14.10;99.90;;;;;;5034702;28;20241;-74
2023/07/25 03:31:01;;;;;;;4.70;2.87;;;14.00;99.90;;;;;;5034678;28;20652;-72
2023/07/25 03:33:27;;;;;;;5.60;3.00;;;14.00;99.90;;;;;;5030392;28;20179;-74
2023/07/25 03:35:54;;;;;;;12.50;2.90;;;14.00;99.90;;;;;;5033774;28;20228;-75
2023/07/25 03:38:20;;;;;;;8.40;2.90;;;14.00;99.90;;;;;;5034100;28;20278;-70
2023/07/25 03:40:45;;;;;;;6.87;3.70;;;14.00;99.90;;;;;;5034401;28;20880;-73
2023/07/25 03:43:12;;;;;;;8.57;4.10;;;13.90;99.90;;;;;;5034351;28;20171;-74
2023/07/25 03:45:38;;;;;;;9.90;2.93;;;13.90;99.90;;;;;;5033001;28;20267;-74
2023/07/25 03:48:04;;;;;;;3.60;3.30;;;13.90;99.90;;;;;;5033880;28;20549;-71
2023/07/25 03:50:30;;;;;;;5.10;3.83;;;13.90;99.90;;;;;;5032885;28;20195;-74
2023/07/25 03:52:58;;;;;;;3.77;3.40;;;13.80;99.90;;;;;;5034055;28;20410;-71
2023/07/25 03:55:23;;;;;;;5.80;3.40;;;13.80;99.90;;;;;;5033405;28;20414;-75
2023/07/25 03:57:50;;;;;;;3.60;3.30;;;13.80;99.90;;;;;;5034173;28;20534;-72
2023/07/25 04:00:16;;;;;;;6.80;3.60;;;13.80;99.90;;;;;;5034132;28;20308;-70
2023/07/25 04:02:42;;;;;;;4.73;3.27;;;13.90;99.90;;;;;;5033076;28;20413;-74
2023/07/25 04:05:07;;;;;;;6.13;4.83;;;13.90;99.90;;;;;;5033163;28;20535;-73
2023/07/25 04:07:36;;;;;;;4.70;3.47;;;13.80;99.90;;;;;;5033512;28;20211;-71
2023/07/25 04:10:03;;;;;;;8.07;3.80;;;13.90;99.90;;;;;;5034048;28;20241;-74
2023/07/25 04:12:28;;;;;;;7.23;3.10;;;13.80;99.90;;;;;;5033788;28;20882;-74
2023/07/25 04:14:54;;;;;;;5.03;4.07;;;13.90;99.90;;;;;;5033070;28;20403;-73
2023/07/25 04:17:20;;;;;;;10.60;3.10;;;13.90;99.90;;;;;;5032798;28;20191;-71
2023/07/25 04:19:46;;;;;;;3.93;2.83;;;13.90;99.90;;;;;;5016433;28;20815;-72
2023/07/25 04:22:12;;;;;;;8.40;3.03;;;13.90;99.90;;;;;;5016500;28;20604;-70
2023/07/25 04:24:37;;;;;;;4.83;3.40;;;13.90;99.90;;;;;;5032347;28;20180;-73
2023/07/25 04:27:03;;;;;;;4.13;3.30;;;13.90;99.90;;;;;;5031491;28;20285;-74
2023/07/25 04:29:29;;;;;;;8.00;3.53;;;14.00;99.90;;;;;;5017411;28;20184;-70
2023/07/25 04:31:55;;;;;;;5.23;3.40;;;13.90;99.90;;;;;;5026876;28;20430;-70
2023/07/25 04:34:21;;;;;;;7.60;3.17;;;14.00;99.90;;;;;;5033069;28;20175;-70
2023/07/25 04:36:47;;;;;;;5.90;3.23;;;13.90;99.90;;;;;;5031357;28;20440;-71
2023/07/25 04:39:13;;;;;;;8.03;5.10;;;13.90;99.90;;;;;;5033223;28;20259;-70
2023/07/25 04:41:39;;;;;;;8.50;3.20;;;13.90;99.90;;;;;;5033473;28;20191;-74
2023/07/25 04:44:04;;;;;;;10.03;3.90;;;13.90;99.90;;;;;;5032521;28;20418;-71
2023/07/25 04:46:30;;;;;;;6.10;2.77;;;14.00;99.90;;;;;;5032163;28;20167;-70
2023/07/25 04:48:57;;;;;;;6.07;3.63;;;14.00;99.90;;;;;;5032699;28;20195;-70
2023/07/25 04:51:22;;;;;;;7.73;3.50;;;14.10;99.90;;;;;;5033381;28;20167;-71
2023/07/25 04:53:48;;;;;;;5.53;3.37;;;14.10;99.90;;;;;;5033333;28;20413;-74
2023/07/25 04:56:14;;;;;;;5.77;3.17;;;14.10;99.90;;;;;;5031306;28;20175;-72
2023/07/25 04:58:41;;;;;;;17.07;4.20;;;14.10;99.90;;;;;;5033098;28;20246;-69
2023/07/25 05:01:07;;;;;;;4.53;2.77;;;14.10;99.90;;;;;;5033253;28;20195;-75
2023/07/25 05:03:33;;;;;;;10.10;4.00;;;14.10;99.90;;;;;;5032767;28;20567;-70
2023/07/25 05:05:59;;;;;;;9.23;4.00;;;14.20;99.90;;;;;;5032026;28;20407;-70
2023/07/25 05:08:25;;;;;;;6.53;3.80;;;14.30;99.90;;;;;;5033414;28;20574;-74
2023/07/25 05:10:52;;;;;;;9.53;3.13;;;14.30;99.90;;;;;;5033387;28;20183;-70
2023/07/25 05:13:18;;;;;;;6.90;3.07;;;14.30;99.90;;;;;;5033556;28;20168;-72
2023/07/25 05:15:44;;;;;;;9.23;3.30;;;14.40;99.90;;;;;;5031056;28;20444;-72
2023/07/25 05:18:09;;;;;;;5.37;3.30;;;14.40;99.90;;;;;;5033097;28;20430;-71
2023/07/25 05:20:35;;;;;;;6.10;3.50;;;14.40;99.90;;;;;;5031788;28;20249;-73
2023/07/25 05:23:01;;;;;;;8.00;3.77;;;14.40;99.90;;;;;;5031752;28;20182;-74
2023/07/25 05:25:26;;;;;;;7.63;4.03;;;14.50;99.90;;;;;;5034013;28;20167;-74
2023/07/25 05:27:52;;;;;;;6.97;3.73;;;14.50;99.90;;;;;;5035079;28;20208;-70
2023/07/25 05:30:18;;;;;;;6.23;2.90;;;14.60;99.90;;;;;;5032247;28;20225;-73
2023/07/25 05:32:44;;;;;;;6.80;3.67;;;14.60;99.90;;;;;;5034363;28;20217;-74
2023/07/25 05:35:10;;;;;;;2.83;2.57;;;14.70;99.90;;;;;;5035979;28;20524;-75
2023/07/25 05:37:39;;;;;;;9.90;3.77;;;14.70;99.90;;;;;;5035364;28;20466;-70
2023/07/25 05:40:05;;;;;;;5.13;3.27;;;14.70;98.30;;;;;;5036402;28;20203;-70
2023/07/25 05:42:32;;;;;;;4.57;3.30;;;14.70;99.20;;;;;;5036168;28;20430;-71
2023/07/25 05:44:59;;;;;;;13.13;4.20;;;14.80;96.30;;;;;;5036418;28;20443;-71
2023/07/25 05:47:26;;;;;;;6.57;3.83;;;14.80;93.80;;;;;;5017826;28;20450;-72
2023/07/25 05:49:52;;;;;;;8.40;3.67;;;14.80;93.80;;;;;;5016789;28;20480;-71
2023/07/25 05:52:17;;;;;;;5.43;2.93;;;14.80;93.80;;;;;;5015504;28;20509;-71
2023/07/25 05:54:46;;;;;;;6.13;3.03;;;14.90;93.80;;;;;;5019062;28;20186;-66
2023/07/25 05:57:12;;;;;;;8.90;3.90;;;15.00;93.90;;;;;;5034553;28;20319;-68
2023/07/25 05:59:40;;;;;;;7.77;3.70;;;15.00;93.90;;;;;;5036309;28;20875;-72
2023/07/25 06:02:07;;;;;;;5.27;3.70;;;15.10;93.90;;;;;;5035266;28;20182;-74
2023/07/25 06:04:32;;;;;;;4.00;2.93;;;15.10;81.20;;;;;;5036245;28;20940;-73
2023/07/25 06:06:58;;;;;;;6.20;2.97;;;15.10;84.40;;;;;;5033314;28;20441;-70
2023/07/25 06:09:24;;;;;;;4.30;2.67;;;15.30;90.10;;;;;;5016653;28;20200;-70
2023/07/25 06:11:49;;;;;;;11.03;3.47;;;15.40;79.70;;;;;;5023196;28;20175;-70
2023/07/25 06:14:15;;;;;;;4.80;3.37;;;15.40;73.10;;;;;;5034076;28;20190;-70
2023/07/25 06:16:41;;;;;;;3.10;2.80;;;15.40;55.90;;;;;;5033826;28;20207;-71
2023/07/25 06:19:06;;;;;;;6.37;2.80;;;15.50;56.80;;;;;;5019839;28;20207;-70
2023/07/25 06:21:32;;;;;;;4.83;2.87;;;15.60;55.00;;;;;;5016506;28;20231;-74
2023/07/25 06:23:58;;;;;;;3.90;2.90;;;15.70;46.50;;;;;;5030507;28;20179;-72
2023/07/25 06:26:24;;;;;;;7.63;3.37;;;15.70;28.60;;;;;;5034853;28;20196;-74
2023/07/25 06:28:52;;;;;;;6.73;2.57;;;15.80;37.40;;;;;;5022181;28;20819;-73
2023/07/25 06:31:18;;;;;;;8.93;3.03;;;15.80;29.00;;;;;;5015915;28;20172;-74
2023/07/25 06:33:43;;;;;;;11.67;3.13;;;15.90;25.20;;;;;;5016077;28;20418;-73
2023/07/25 06:36:09;;;;;;;12.43;3.37;;;16.00;14.20;;;;;;5014142;28;20175;-74
2023/07/25 06:38:35;;;;;;;6.37;2.83;;;16.00;1.00;;;;;;5014742;28;20196;-75
2023/07/25 06:41:00;;;;;;;8.00;3.43;;;16.10;1.00;;;;;;5015826;28;20688;-73
2023/07/25 06:43:26;;;;;;;4.93;3.23;;;16.20;1.00;;;;;;5020089;28;20207;-72
2023/07/25 06:45:53;;;;;;;6.53;2.80;;;16.20;1.00;;;;;;5029143;28;20257;-71
2023/07/25 06:48:18;;;;;;;4.20;2.57;;;16.20;1.00;;;;;;5014271;28;20200;-74
2023/07/25 06:50:45;;;;;;;5.43;3.20;;;16.30;1.00;;;;;;5015537;28;20425;-75
2023/07/25 06:53:11;;;;;;;11.03;4.00;;;16.30;1.00;;;;;;5015320;28;20176;-70
2023/07/25 06:55:40;;;;;;;3.30;2.63;;;16.40;1.00;;;;;;5017408;28;20513;-71
2023/07/25 06:58:05;;;;;;;8.47;3.93;;;16.40;1.00;;;;;;5035411;28;20982;-74
2023/07/25 07:00:33;;;;;;;8.67;3.33;;;16.40;1.00;;;;;;5034121;28;20545;-71
2023/07/25 07:02:59;;;;;;;4.03;2.90;;;16.60;1.00;;;;;;5035312;28;20225;-72
2023/07/25 07:05:25;;;;;;;4.73;2.77;;;16.70;1.00;;;;;;5033954;28;20414;-74
2023/07/25 07:07:51;;;;;;;5.53;3.40;;;16.80;1.00;;;;;;5035477;28;20226;-70
2023/07/25 07:10:16;;;;;;;6.57;2.30;;;16.90;1.00;;;;;;5034543;28;20250;-73
2023/07/25 07:12:47;;;;;;;5.37;2.80;;;16.90;1.00;;;;;;5034617;28;20176;-73
2023/07/25 07:15:14;;;;;;;2.73;2.27;;;16.90;1.00;;;;;;5034139;28;20524;-75
2023/07/25 07:17:41;;;;;;;8.10;3.30;;;17.00;1.00;;;;;;5035004;28;20427;-70
2023/07/25 07:20:07;;;;;;;2.93;2.70;;;17.00;1.00;;;;;;5033599;28;20818;-74
2023/07/25 07:22:33;;;;;;;5.57;2.70;;;17.00;1.00;;;;;;5034713;28;20414;-71
2023/07/25 07:24:58;;;;;;;3.77;2.07;;;17.20;1.00;;;;;;5033637;28;20421;-73
2023/07/25 07:27:24;;;;;;;4.70;1.80;;;17.20;1.00;;;;;;5034269;28;20195;-70
2023/07/25 07:29:52;;;;;;;6.43;3.00;;;17.30;1.00;;;;;;5034434;28;20172;-75
2023/07/25 07:32:18;;;;;;;6.73;2.40;;;17.40;1.00;;;;;;5033542;28;20639;-73
2023/07/25 07:34:43;;;;;;;6.47;3.50;;;17.50;1.00;;;;;;5034045;28;20517;-71
2023/07/25 07:37:09;;;;;;;4.87;2.87;;;17.50;1.00;;;;;;5033877;28;20195;-70
2023/07/25 07:39:37;;;;;;;6.20;3.10;;;17.50;1.00;;;;;;5023920;28;20184;-70
2023/07/25 07:42:03;;;;;;;5.63;2.17;;;17.40;1.00;;;;;;5014511;28;20633;-70
2023/07/25 07:44:29;;;;;;;4.63;1.80;;;17.40;1.00;;;;;;5014785;28;20399;-71
2023/07/25 07:46:55;;;;;;;4.57;3.17;;;17.20;1.00;;;;;;5013479;28;20957;-76
2023/07/25 07:49:21;;;;;;;3.70;2.77;;;17.00;1.00;;;;;;5033557;28;20184;-73
2023/07/25 07:51:47;;;;;;;4.60;1.93;;;17.00;1.00;;;;;;5034445;28;20903;-74
2023/07/25 07:54:12;;;;;;;3.77;2.57;;;16.90;1.00;;;;;;5032982;28;20262;-74
2023/07/25 07:56:38;;;;;;;2.93;2.23;;;16.80;1.00;;;;;;5033455;28;20190;-75
2023/07/25 07:59:06;;;;;;;10.00;2.93;;;16.80;1.00;;;;;;5033922;28;20176;-72
2023/07/25 08:01:31;;;;;;;4.03;2.23;;;16.90;1.00;;;;;;5032867;28;20207;-71
2023/07/25 08:03:57;;;;;;;2.43;2.10;;;16.90;1.00;;;;;;5033686;28;20433;-74
2023/07/25 08:06:23;;;;;;;4.20;2.60;;;17.00;1.00;;;;;;5032971;28;20646;-71
2023/07/25 08:08:48;;;;;;;7.63;2.70;;;17.10;1.00;;;;;;5034138;28;20159;-74
2023/07/25 08:11:14;;;;;;;4.30;2.00;;;17.30;1.00;;;;;;5034141;28;20168;-70
2023/07/25 08:13:40;;;;;;;5.43;1.67;;;17.40;1.00;;;;;;5033888;28;20171;-75
2023/07/25 08:16:06;;;;;;;5.90;2.33;;;17.60;1.00;;;;;;5032232;28;20211;-74
2023/07/25 08:18:31;;;;;;;7.17;2.60;;;17.80;1.00;;;;;;5032567;28;20230;-72
2023/07/25 08:20:59;;;;;;;4.40;1.50;;;18.10;1.00;;;;;;5032782;28;20269;-75
2023/07/25 08:23:26;;;;;;;3.67;1.63;;;18.20;1.00;;;;;;5033898;28;20160;-70
2023/07/25 08:25:54;;;;;;;1.80;1.70;;;18.40;1.00;;;;;;5032019;28;20411;-71
2023/07/25 08:28:19;;;;;;;4.20;2.00;;;18.40;1.00;;;;;;5030892;28;20478;-74
2023/07/25 08:30:45;;;;;;;2.17;1.63;;;18.40;1.00;;;;;;5033930;28;20484;-68
2023/07/25 08:33:12;;;;;;;3.80;1.93;;;18.50;1.00;;;;;;5033446;28;20175;-74
2023/07/25 08:35:38;;;;;;;6.47;2.07;;;18.40;1.00;;;;;;5032677;28;20202;-71
2023/07/25 08:38:04;;;;;;;5.37;2.67;;;18.40;1.00;;;;;;5033603;28;20949;-74
2023/07/25 08:40:30;;;;;;;3.50;2.33;;;18.40;1.00;;;;;;5032260;28;20445;-73
2023/07/25 08:43:07;;;;;;;4.07;1.73;;;18.40;1.00;;;;;;5032940;28;20183;-74
2023/07/25 08:45:34;;;;;;;1.83;1.73;;;18.40;1.00;;;;;;5030566;28;20233;-71
2023/07/25 08:48:04;;;;;;;2.90;1.83;;;18.40;1.00;;;;;;5032986;28;20423;-71
2023/07/25 08:50:32;;;;;;;2.20;1.87;;;18.60;1.00;;;;;;5030233;28;20814;-71
2023/07/25 08:53:01;;;;;;;2.50;1.70;;;18.90;1.00;;;;;;5029722;28;20434;-74
2023/07/25 08:55:26;;;;;;;2.43;1.40;;;19.10;1.00;;;;;;5031135;28;20438;-74
2023/07/25 08:57:52;;;;;;;4.10;1.50;;;19.30;1.00;;;;;;5033237;28;20418;-75
2023/07/25 09:00:19;;;;;;;8.47;1.70;;;19.20;1.00;;;;;;5032803;28;20674;-71
2023/07/25 09:02:44;;;;;;;5.10;1.50;;;19.00;1.00;;;;;;5033101;28;20440;-74
2023/07/25 09:05:11;;;;;;;2.30;1.23;;;19.10;1.00;;;;;;5032279;28;20797;-70
2023/07/25 09:07:36;;;;;;;3.10;1.30;;;19.30;1.00;;;;;;5033291;28;20580;-71
2023/07/25 09:10:03;;;;;;;5.53;1.90;;;19.40;99.90;;;;;;5031440;28;20445;-71
2023/07/25 09:12:29;;;;;;;3.97;2.37;;;19.50;99.90;;;;;;5033563;28;20198;-74
2023/07/25 09:14:54;;;;;;;3.10;1.43;;;19.40;99.90;;;;;;5032983;28;20395;-72
2023/07/25 09:17:21;;;;;;;1.67;1.57;;;19.30;99.90;;;;;;5032710;28;20429;-73
2023/07/25 09:19:47;;;;;;;2.90;1.30;;;19.40;99.90;;;;;;5032899;28;20203;-72
2023/07/25 09:22:29;;;;;;;5.27;1.70;;;19.50;99.90;;;;;;5033325;28;20395;-71
2023/07/25 09:24:56;;;;;;;5.70;1.40;;;19.60;99.90;;;;;;5028606;28;20425;-76
2023/07/25 09:27:21;;;;;;;4.37;1.60;;;19.90;99.90;;;;;;5032348;28;20414;-70
2023/07/25 09:29:51;;;;;;;2.60;1.40;;;20.20;99.90;;;;;;5031714;28;20740;-72
2023/07/25 09:32:21;;;;;;;1.50;1.27;;;20.60;99.90;;;;;;5033015;28;20156;-71
2023/07/25 09:34:59;;;;;;;3.53;1.33;;;20.80;99.90;;;;;;5033104;28;20398;-73
2023/07/25 09:37:25;;;;;;;2.70;1.70;;;20.90;99.90;;;;;;5032469;28;20421;-74
2023/07/25 09:39:51;;;;;;;2.73;1.30;;;20.90;99.90;;;;;;5015159;28;20437;-73
2023/07/25 09:42:21;;;;;;;5.57;1.77;;;20.90;99.90;;;;;;5016855;28;20259;-72
2023/07/25 09:44:48;;;;;;;1.50;1.40;;;20.70;99.90;;;;;;5013300;28;20156;-74
2023/07/25 09:47:19;;;;;;;3.70;1.33;;;20.90;99.90;;;;;;5011677;28;20817;-74
2023/07/25 09:49:49;;;;;;;3.97;1.67;;;21.00;99.90;;;;;;5013138;28;20420;-75
2023/07/25 09:52:15;;;;;;;2.40;1.77;;;21.00;99.90;;;;;;5019316;28;20511;-75
2023/07/25 09:54:41;;;;;;;3.57;1.63;;;21.10;99.90;;;;;;5031942;28;20402;-72
2023/07/25 09:57:07;;;;;;;5.13;2.00;;;21.30;99.90;;;;;;5031472;28;20430;-71
2023/07/25 09:59:34;;;;;;;2.63;1.80;;;21.40;99.90;;;;;;5032958;28;20493;-71
2023/07/25 10:02:01;;;;;;;5.60;1.80;;;20.90;99.90;;;;;;5031335;28;20818;-70
2023/07/25 10:04:27;;;;;;;2.47;1.43;;;20.30;99.90;;;;;;5032346;28;20406;-69
2023/07/25 10:06:53;;;;;;;4.00;1.97;;;19.70;99.90;;;;;;5031288;28;20536;-74
2023/07/25 10:09:19;;;;;;;2.90;1.20;;;20.10;99.90;;;;;;5032855;28;20779;-74
2023/07/25 10:11:46;;;;;;;5.87;1.40;;;20.90;99.90;;;;;;5032795;28;20787;-70
2023/07/25 10:14:13;;;;;;;1.43;1.33;;;21.70;99.90;;;;;;5036457;28;20398;-72
2023/07/25 10:16:40;;;;;;;4.03;1.70;;;22.20;99.90;;;;;;5035171;28;20472;-71
2023/07/25 10:19:06;;;;;;;1.57;1.17;;;22.80;99.90;;;;;;5036053;28;20871;-71
2023/07/25 10:21:51;;;;;;;6.17;2.07;;;23.20;99.90;;;;;;5034031;28;20811;-74
2023/07/25 10:24:19;;;;;;;3.27;1.37;;;23.60;99.90;;;;;;5035065;28;20497;-72
2023/07/25 10:26:55;;;;;;;5.53;1.47;;;23.40;99.90;;;;;;5034985;28;20430;-70
2023/07/25 10:29:42;;;;;;;2.83;1.40;;;23.40;99.90;;;;;;5035885;28;20755;-71
2023/07/25 10:32:12;;;;;;;5.73;1.20;;;23.60;99.90;;;;;;5036172;28;20413;-73
2023/07/25 10:34:51;;;;;;;4.30;1.37;;;23.70;99.90;;;;;;5034600;28;20437;-71
2023/07/25 10:37:30;;;;;;;3.83;1.40;;;23.70;99.90;;;;;;5034761;28;20411;-73
2023/07/25 10:40:11;;;;;;;4.10;1.30;;;23.90;99.90;;;;;;5035715;28;20417;-70
2023/07/25 10:42:58;;;;;;;5.37;1.40;;;23.90;99.90;;;;;;5035781;28;20786;-71
2023/07/25 10:45:29;;;;;;;4.20;1.50;;;24.20;99.90;;;;;;5034847;28;20413;-72
2023/07/25 10:47:59;;;;;;;2.53;1.10;;;24.50;99.90;;;;;;5034266;28;20877;-73
2023/07/25 10:50:45;;;;;;;1.43;1.23;;;24.50;99.90;;;;;;5035592;28;20432;-73
2023/07/25 10:53:15;;;;;;;1.80;1.00;;;24.30;99.90;;;;;;5034397;28;20468;-72
2023/07/25 10:56:11;;;;;;;1.90;1.70;;;24.20;99.90;;;;;;5034657;28;20410;-70
2023/07/25 10:59:05;;;;;;;2.60;1.30;;;24.20;99.90;;;;;;5034687;28;20996;-69
2023/07/25 11:01:37;;;;;;;1.97;1.23;;;24.20;99.90;;;;;;5035432;28;20450;-72
2023/07/25 11:04:23;;;;;;;2.63;1.63;;;24.30;99.90;;;;;;5033531;28;20430;-73
2023/07/25 11:06:50;;;;;;;3.60;1.50;;;24.30;99.90;;;;;;5032959;28;20444;-70
2023/07/25 11:09:15;;;;;;;2.17;1.23;;;24.10;99.90;;;;;;5035345;28;20409;-72
2023/07/25 11:11:45;;;;;;;4.80;1.10;;;24.20;99.90;;;;;;5033743;28;20422;-72
2023/07/25 11:14:17;;;;;;;2.57;1.50;;;24.20;99.90;;;;;;5035537;28;20516;-72
2023/07/25 11:16:44;;;;;;;5.87;1.20;;;24.40;99.90;;;;;;5020514;28;20534;-71
2023/07/25 11:19:10;;;;;;;2.67;1.50;;;24.30;99.90;;;;;;5015227;28;20443;-71
2023/07/25 11:21:41;;;;;;;2.90;1.20;;;24.50;99.90;;;;;;5015336;28;20566;-72
2023/07/25 11:24:08;;;;;;;3.17;1.47;;;24.60;99.90;;;;;;5014835;28;20768;-73
2023/07/25 11:26:37;;;;;;;3.40;1.40;;;24.20;99.90;;;;;;5013911;28;20411;-72
2023/07/25 11:29:07;;;;;;;1.77;1.03;;;24.30;99.90;;;;;;5014970;28;20399;-75
2023/07/25 11:31:35;;;;;;;3.37;1.30;;;24.90;99.90;;;;;;5015409;28;20446;-73
2023/07/25 11:34:15;;;;;;;3.13;1.20;;;25.50;99.90;;;;;;5014534;28;20423;-71
2023/07/25 11:36:42;;;;;;;6.30;1.57;;;25.90;99.90;;;;;;5023736;28;20465;-71
2023/07/25 11:39:09;;;;;;;3.37;1.10;;;26.30;99.90;;;;;;5019474;28;20413;-73
2023/07/25 11:41:37;;;;;;;3.93;1.70;;;26.40;99.90;;;;;;5014928;28;20450;-70
2023/07/25 11:44:07;;;;;;;4.73;1.33;;;26.20;99.90;;;;;;5020713;28;20512;-70
2023/07/25 11:46:33;;;;;;;2.30;1.00;;;26.30;99.90;;;;;;5033387;28;20894;-73
2023/07/25 11:48:59;;;;;;;1.50;1.00;;;26.50;99.90;;;;;;5034647;28;20506;-74
2023/07/25 11:51:26;;;;;;;2.13;1.37;;;25.90;99.90;;;;;;5034375;28;20477;-70
2023/07/25 11:53:52;;;;;;;2.53;1.13;;;26.00;99.90;;;;;;5034043;28;20464;-73
2023/07/25 11:56:18;;;;;;;2.63;1.37;;;26.40;99.90;;;;;;5033509;28;20528;-71
2023/07/25 11:58:48;;;;;;;2.87;1.10;;;26.70;99.90;;;;;;5033662;28;20894;-71
2023/07/25 12:01:14;;;;;;;1.77;1.03;;;26.90;99.90;;;;;;5034164;28;20227;-69
2023/07/25 12:03:47;;;;;;;4.47;1.17;;;26.90;99.90;;;;;;5032126;28;20872;-73
2023/07/25 12:06:13;;;;;;;2.53;1.00;;;26.20;99.90;;;;;;5031611;28;20167;-72
2023/07/25 12:08:47;;;;;;;2.70;1.17;;;25.50;99.90;;;;;;5013229;28;20403;-70
2023/07/25 12:11:15;;;;;;;2.67;0.90;;;25.60;99.90;;;;;;5013256;28;20235;-72
2023/07/25 12:13:57;;;;;;;5.13;1.37;;;25.90;99.90;;;;;;5032974;28;20434;-72
2023/07/25 12:16:36;;;;;;;3.83;1.17;;;25.60;99.90;;;;;;5033386;28;20402;-70
2023/07/25 12:19:08;;;;;;;5.23;1.30;;;26.00;99.90;;;;;;5034073;28;20506;-70
2023/07/25 12:21:36;;;;;;;2.70;1.10;;;26.50;99.90;;;;;;5026001;28;20459;-72
2023/07/25 12:24:05;;;;;;;1.87;0.90;;;26.50;99.90;;;;;;5019722;28;20426;-71
2023/07/25 12:26:45;;;;;;;6.27;1.23;;;26.50;99.90;;;;;;5032632;28;20394;-73
2023/07/25 12:29:24;;;;;;;2.20;1.23;;;25.90;99.90;;;;;;5033847;28;20390;-72
2023/07/25 12:31:51;;;;;;;3.60;1.30;;;25.00;99.90;;;;;;5033251;28;20485;-73
2023/07/25 12:34:19;;;;;;;4.90;1.10;;;23.90;99.90;;;;;;5032993;28;20394;-70
2023/07/25 12:36:45;;;;;;;5.83;1.83;;;23.30;99.90;;;;;;5032318;28;20484;-73
2023/07/25 12:39:11;;;;;;;3.23;1.43;;;23.00;99.90;;;;;;5033329;28;20390;-73
2023/07/25 12:41:38;;;;;;;5.20;1.30;;;23.70;99.90;;;;;;5031696;28;20500;-76
2023/07/25 12:44:04;;;;;;;1.70;1.33;;;24.50;99.90;;;;;;5032659;28;20183;-74
2023/07/25 12:46:29;;;;;;;4.43;1.30;;;25.40;99.90;;;;;;5031741;28;20438;-74
2023/07/25 12:48:55;;;;;;;5.73;1.43;;;26.20;99.90;;;;;;5033302;28;20414;-73